Bountiful, Colorado
Current Conditions -  °F | °C
As of 5:52 PM on Thursday 27 Nov 2014 (Local Time) from KALS Reporting Station
Clear Clear  
Wind Chill:   Ceiling: Unl
Heat Index:   Visibility: 10mi
Dew Point: -9°   Wind: 0mph
Humidity: 44%   Direction: NA
Pressure: 30.36"   Gusts: NA
Location:  37.3121°N, 106.036°W
Report Text: KALS 280052Z AUTO 00000KT 10SM CLR 02/M09 A3036 RMK AO2 SLP322 T00221089
Loading
Personal Weather Stations






























Interactive Weather Map New forecast layout! Learn more

10-Day Weather Forecast

Advertisements
Track Severe Weather on mobile